createdAt,value
2022-10-01T01:02:22.103Z,3.88
2022-10-01T01:04:49.911Z,3.30
2022-10-01T01:07:16.536Z,3.10
2022-10-01T01:09:45.245Z,4.47
2022-10-01T01:12:20.637Z,3.97
2022-10-01T01:15:23.655Z,4.03
2022-10-01T01:17:55.034Z,3.60
2022-10-01T01:20:55.380Z,2.30
2022-10-01T01:23:41.051Z,3.83
2022-10-01T01:26:18.017Z,4.40
2022-10-01T01:28:57.760Z,2.90
2022-10-01T01:31:30.759Z,3.63
2022-10-01T01:33:57.535Z,4.65
2022-10-01T01:36:27.976Z,3.60
2022-10-01T01:39:00.781Z,3.45
2022-10-01T01:41:28.619Z,3.97
2022-10-01T01:43:56.785Z,4.57
2022-10-01T01:46:23.582Z,4.25
2022-10-01T01:48:50.303Z,4.15
2022-10-01T01:51:24.261Z,3.60
2022-10-01T01:53:50.880Z,3.10
2022-10-01T01:56:17.656Z,3.80
2022-10-01T01:58:44.992Z,3.60
2022-10-01T02:01:40.293Z,3.88
2022-10-01T02:04:13.264Z,4.22
2022-10-01T02:06:45.878Z,3.33
2022-10-01T02:09:23.682Z,3.58
2022-10-01T02:12:02.885Z,4.03
2022-10-01T02:14:40.269Z,3.70
2022-10-01T02:17:20.692Z,3.08
2022-10-01T02:19:56.605Z,3.50
2022-10-01T02:22:54.100Z,3.90
2022-10-01T02:25:22.618Z,3.28
2022-10-01T02:28:10.136Z,3.85
2022-10-01T02:30:36.833Z,4.00
2022-10-01T02:33:04.054Z,4.40
2022-10-01T02:35:31.366Z,3.97
2022-10-01T02:37:58.628Z,3.65
2022-10-01T02:40:25.708Z,3.25
2022-10-01T02:42:54.836Z,3.40
2022-10-01T02:45:22.688Z,3.60
2022-10-01T02:48:10.532Z,2.90
2022-10-01T02:51:05.261Z,3.97
2022-10-01T02:53:37.160Z,4.15
2022-10-01T02:56:03.820Z,3.15
2022-10-01T02:58:30.475Z,3.90
2022-10-01T03:00:57.092Z,4.15
2022-10-01T03:03:23.827Z,4.10
2022-10-01T03:05:50.421Z,4.10
2022-10-01T03:08:17.073Z,4.53
2022-10-01T03:10:46.759Z,4.18
2022-10-01T03:13:13.734Z,4.43
2022-10-01T03:15:40.437Z,3.78
2022-10-01T03:18:07.147Z,3.55
2022-10-01T03:20:33.762Z,3.75
2022-10-01T03:23:00.339Z,3.70
2022-10-01T03:25:26.987Z,3.20
2022-10-01T03:27:53.697Z,3.60
2022-10-01T03:30:20.471Z,3.58
2022-10-01T03:32:47.088Z,3.28
2022-10-01T03:35:23.918Z,3.05
2022-10-01T03:37:50.586Z,3.00
2022-10-01T03:40:17.286Z,3.38
2022-10-01T03:42:43.964Z,3.20
2022-10-01T03:45:10.757Z,2.88
2022-10-01T03:47:37.467Z,2.63
2022-10-01T03:50:04.522Z,2.40
2022-10-01T03:52:31.134Z,2.40
2022-10-01T03:54:57.866Z,3.10
2022-10-01T03:57:24.528Z,3.47
2022-10-01T03:59:51.199Z,3.05
2022-10-01T04:02:17.991Z,3.40
2022-10-01T04:04:44.716Z,3.00
2022-10-01T04:07:11.387Z,3.40
2022-10-01T04:09:39.417Z,4.20
2022-10-01T04:12:06.120Z,4.45
2022-10-01T04:14:32.766Z,4.07
2022-10-01T04:16:59.511Z,4.60
2022-10-01T04:19:26.202Z,4.28
2022-10-01T04:21:52.863Z,4.75
2022-10-01T04:24:19.508Z,5.22
2022-10-01T04:26:46.269Z,5.63
2022-10-01T04:29:13.118Z,6.10
2022-10-01T04:31:39.784Z,5.97
2022-10-01T04:34:06.548Z,5.85
2022-10-01T04:36:33.206Z,6.85
2022-10-01T04:39:02.370Z,6.13
2022-10-01T04:43:56.583Z,6.10
2022-10-01T04:46:23.262Z,7.22
2022-10-01T04:48:49.939Z,6.53
2022-10-01T04:51:18.850Z,7.22
2022-10-01T04:53:45.485Z,7.75
2022-10-01T04:56:12.156Z,7.93
2022-10-01T04:58:38.794Z,7.13
2022-10-01T05:01:05.485Z,8.80
2022-10-01T05:03:32.145Z,8.38
2022-10-01T05:05:58.755Z,8.80
2022-10-01T05:08:25.962Z,8.15
2022-10-01T05:10:52.624Z,9.05
2022-10-01T05:13:19.267Z,7.43
2022-10-01T05:15:50.175Z,8.48
2022-10-01T05:18:17.421Z,9.85
2022-10-01T05:20:44.076Z,10.20
2022-10-01T05:23:10.840Z,10.27
2022-10-01T05:25:47.500Z,11.40
2022-10-01T05:28:21.332Z,8.93
2022-10-01T05:30:49.971Z,10.40
2022-10-01T05:33:19.971Z,10.73
2022-10-01T05:35:48.777Z,11.25
2022-10-01T05:38:16.845Z,11.27
2022-10-01T05:40:46.300Z,9.38
2022-10-01T05:43:15.215Z,10.80
2022-10-01T05:45:48.079Z,9.35
2022-10-01T05:48:14.795Z,9.77
2022-10-01T05:50:41.472Z,9.57
2022-10-01T05:53:08.494Z,10.88
2022-10-01T05:55:35.158Z,10.30
2022-10-01T05:58:03.929Z,8.43
2022-10-01T06:00:34.035Z,11.00
2022-10-01T06:03:01.788Z,9.23
2022-10-01T06:05:29.087Z,10.40
2022-10-01T06:07:55.774Z,11.15
2022-10-01T06:10:22.776Z,11.80
2022-10-01T06:12:49.508Z,11.35
2022-10-01T06:15:16.420Z,10.52
2022-10-01T06:17:43.237Z,11.40
2022-10-01T06:20:12.931Z,9.88
2022-10-01T06:22:40.382Z,11.25
2022-10-01T06:25:13.284Z,10.77
2022-10-01T06:27:40.477Z,10.05
2022-10-01T06:30:07.796Z,8.88
2022-10-01T06:32:35.160Z,10.30
2022-10-01T06:35:02.714Z,10.30
2022-10-01T06:37:29.374Z,8.13
2022-10-01T06:39:56.016Z,8.35
2022-10-01T06:42:22.777Z,7.25
2022-10-01T06:44:49.515Z,7.60
2022-10-01T06:47:16.233Z,5.20
2022-10-01T06:49:47.338Z,4.95
2022-10-01T06:52:14.599Z,5.38
2022-10-01T06:54:41.349Z,2.97
2022-10-01T06:57:07.996Z,3.28
2022-10-01T06:59:34.695Z,3.95
2022-10-01T07:02:01.639Z,2.72
2022-10-01T07:04:28.357Z,3.25
2022-10-01T07:06:57.430Z,3.95
2022-10-01T07:09:25.022Z,4.80
2022-10-01T07:11:51.825Z,4.68
2022-10-01T07:14:18.961Z,5.75
2022-10-01T07:16:45.863Z,5.30
2022-10-01T07:19:12.604Z,5.30
2022-10-01T07:21:42.010Z,4.85
2022-10-01T07:24:08.875Z,3.33
2022-10-01T07:26:35.592Z,2.58
2022-10-01T07:29:05.490Z,2.83
2022-10-01T07:31:32.671Z,2.00
2022-10-01T07:33:59.591Z,2.28
2022-10-01T07:36:26.260Z,2.50
2022-10-01T07:38:52.934Z,2.13
2022-10-01T07:41:19.652Z,2.00
2022-10-01T07:43:48.583Z,1.38
2022-10-01T07:46:15.296Z,2.15
2022-10-01T07:48:45.156Z,2.03
2022-10-01T07:51:12.013Z,2.45
2022-10-01T07:53:44.084Z,1.67
2022-10-01T07:56:11.035Z,1.73
2022-10-01T07:58:37.730Z,2.75
2022-10-01T08:01:04.863Z,1.98
2022-10-01T08:03:32.776Z,2.20
2022-10-01T08:05:59.573Z,2.25
2022-10-01T08:08:27.454Z,2.75
2022-10-01T08:10:54.232Z,2.97
2022-10-01T08:13:21.013Z,2.25
2022-10-01T08:15:47.887Z,2.25
2022-10-01T08:18:14.894Z,2.13
2022-10-01T08:20:41.850Z,2.95
2022-10-01T08:23:12.567Z,2.25
2022-10-01T08:25:39.391Z,2.30
2022-10-01T08:28:07.097Z,2.35
2022-10-01T08:30:34.253Z,2.47
2022-10-01T08:33:01.415Z,2.08
2022-10-01T08:35:29.425Z,2.05
2022-10-01T08:38:05.741Z,2.08
2022-10-01T08:40:41.027Z,2.17
2022-10-01T08:43:12.383Z,1.67
2022-10-01T08:45:42.591Z,2.72
2022-10-01T08:48:52.463Z,1.60
2022-10-01T08:51:47.035Z,1.60
2022-10-01T08:54:33.875Z,2.05
2022-10-01T08:57:02.577Z,1.80
2022-10-01T08:59:50.660Z,2.00
2022-10-01T09:02:32.090Z,2.17
2022-10-01T09:05:02.385Z,1.95
2022-10-01T09:07:37.768Z,1.88
2022-10-01T12:41:39.430Z,1.38
2022-10-01T13:05:01.410Z,1.27
2022-10-01T13:07:43.049Z,1.55
2022-10-01T13:10:21.742Z,1.45
2022-10-01T13:12:56.819Z,1.50
2022-10-01T13:15:37.604Z,1.45
2022-10-01T13:18:21.992Z,1.30
2022-10-01T13:21:05.019Z,1.25
2022-10-01T13:23:39.447Z,1.25
2022-10-01T13:26:15.027Z,1.38
2022-10-01T13:29:05.805Z,1.27
2022-10-01T13:31:38.901Z,1.50
2022-10-01T13:34:40.690Z,1.55
2022-10-01T13:37:30.357Z,1.83
2022-10-01T13:39:57.797Z,1.67
2022-10-01T13:42:25.885Z,1.58
2022-10-01T13:44:53.848Z,1.90
2022-10-01T13:47:20.463Z,1.83
2022-10-01T13:50:00.735Z,1.80
2022-10-01T13:52:27.369Z,1.80
2022-10-01T13:54:55.016Z,1.65
2022-10-01T13:57:41.886Z,2.05
2022-10-01T14:00:11.605Z,2.03
2022-10-01T14:03:16.982Z,1.50
2022-10-01T14:05:43.763Z,1.80
2022-10-01T14:08:56.454Z,1.58
2022-10-01T14:11:27.075Z,2.88
2022-10-01T14:13:53.665Z,2.65
2022-10-01T14:16:20.396Z,2.95
2022-10-01T14:18:48.303Z,4.03
2022-10-01T14:21:42.398Z,3.03
2022-10-01T14:24:30.630Z,1.80
2022-10-01T14:27:03.413Z,2.22
2022-10-01T14:29:52.457Z,4.57
2022-10-01T14:32:44.069Z,1.42
2022-10-01T14:35:31.232Z,3.15
2022-10-01T14:38:01.819Z,1.60
2022-10-01T14:40:42.569Z,3.78
2022-10-01T14:43:33.015Z,2.08
2022-10-01T14:46:01.635Z,2.35
2022-10-01T14:48:29.829Z,2.30
2022-10-01T14:50:58.391Z,2.00
2022-10-01T14:53:26.753Z,2.50
2022-10-01T14:55:54.661Z,7.90
2022-10-01T14:58:24.731Z,2.97
2022-10-01T15:00:51.335Z,1.85
2022-10-01T15:03:17.967Z,2.92
2022-10-01T15:05:46.183Z,4.53
2022-10-01T15:08:14.626Z,2.50
2022-10-01T15:10:45.061Z,2.78
2022-10-01T15:13:21.661Z,2.75
2022-10-01T22:05:55.151Z,4.07
